createdAt,value
2022-08-17T00:00:43.353Z,40.30
2022-08-17T00:03:02.865Z,36.53
2022-08-17T00:05:31.597Z,41.80
2022-08-17T00:07:58.507Z,37.23
2022-08-17T00:10:25.276Z,36.50
2022-08-17T00:12:52.495Z,40.73
2022-08-17T00:15:21.143Z,37.90
2022-08-17T00:17:50.172Z,34.23
2022-08-17T00:20:17.449Z,45.80
2022-08-17T00:22:46.529Z,36.97
2022-08-17T00:25:16.635Z,38.47
2022-08-17T00:27:43.094Z,35.90
2022-08-17T00:30:11.637Z,42.77
2022-08-17T00:33:12.213Z,41.10
2022-08-17T00:35:34.703Z,44.17
2022-08-17T00:38:01.198Z,41.90
2022-08-17T00:40:27.893Z,43.47
2022-08-17T00:43:35.956Z,48.50
2022-08-17T00:46:14.520Z,41.33
2022-08-17T00:48:42.198Z,49.73
2022-08-17T00:51:22.917Z,42.80
2022-08-17T00:54:04.649Z,46.83
2022-08-17T00:56:44.952Z,45.33
2022-08-17T00:59:14.714Z,49.63
2022-08-17T01:01:41.705Z,46.13
2022-08-17T01:04:08.663Z,50.33
2022-08-17T01:06:35.683Z,56.13
2022-08-17T01:09:03.815Z,49.10
2022-08-17T01:11:32.740Z,48.33
2022-08-17T01:13:59.172Z,43.73
2022-08-17T01:16:30.657Z,54.67
2022-08-17T01:19:00.466Z,42.47
2022-08-17T01:21:39.380Z,52.07
2022-08-17T01:24:06.079Z,46.10
2022-08-17T01:26:33.332Z,48.73
2022-08-17T01:29:00.705Z,56.93
2022-08-17T01:31:30.856Z,53.03
2022-08-17T01:34:00.584Z,50.40
2022-08-17T01:36:28.383Z,54.53
2022-08-17T01:38:55.005Z,51.83
2022-08-17T01:41:21.880Z,51.30
2022-08-17T01:43:54.553Z,55.57
2022-08-17T01:46:28.199Z,53.70
2022-08-17T01:48:56.274Z,51.33
2022-08-17T01:51:23.645Z,57.97
2022-08-17T01:53:57.445Z,58.47
2022-08-17T01:56:24.689Z,58.30
2022-08-17T01:58:51.817Z,59.00
2022-08-17T02:01:21.557Z,61.83
2022-08-17T02:03:59.396Z,60.40
2022-08-17T02:06:31.390Z,56.17
2022-08-17T02:09:09.531Z,63.43
2022-08-17T02:11:43.664Z,59.23
2022-08-17T02:14:11.836Z,63.83
2022-08-17T02:16:40.231Z,59.87
2022-08-17T02:19:08.992Z,62.97
2022-08-17T02:21:36.819Z,60.77
2022-08-17T02:24:04.993Z,60.17
2022-08-17T02:26:31.604Z,62.10
2022-08-17T02:28:58.058Z,70.40
2022-08-17T02:31:24.485Z,71.53
2022-08-17T02:34:04.210Z,63.37
2022-08-17T02:36:35.598Z,67.13
2022-08-17T02:39:07.336Z,66.73
2022-08-17T02:41:34.229Z,65.70
2022-08-17T02:44:00.759Z,67.27
2022-08-17T02:46:28.321Z,70.80
2022-08-17T02:48:54.880Z,72.23
2022-08-17T02:51:21.297Z,64.13
2022-08-17T02:53:47.978Z,68.50
2022-08-17T02:56:14.441Z,73.40
2022-08-17T02:58:40.901Z,70.77
2022-08-17T03:01:09.969Z,70.90
2022-08-17T03:03:37.319Z,77.63
2022-08-17T03:06:04.421Z,78.57
2022-08-17T03:08:31.301Z,75.40
2022-08-17T03:10:57.716Z,87.07
2022-08-17T03:13:24.218Z,84.83
2022-08-17T03:15:50.861Z,95.03
2022-08-17T03:18:25.786Z,84.50
2022-08-17T03:20:57.896Z,85.87
2022-08-17T03:23:25.482Z,86.03
2022-08-17T03:25:53.755Z,85.77
2022-08-17T03:28:21.580Z,90.00
2022-08-17T03:30:48.322Z,87.20
2022-08-17T03:33:14.965Z,88.43
2022-08-17T03:35:41.853Z,93.10
2022-08-17T03:38:15.194Z,85.03
2022-08-17T03:40:57.135Z,97.47
2022-08-17T03:43:27.565Z,81.97
2022-08-17T03:46:27.940Z,85.40
2022-08-17T03:49:22.250Z,83.23
2022-08-17T03:52:07.332Z,86.10
2022-08-17T03:54:52.246Z,89.00
2022-08-17T03:57:19.221Z,95.63
2022-08-17T03:59:45.940Z,90.33
2022-08-17T04:02:24.782Z,91.23
2022-08-17T04:04:52.117Z,91.57
2022-08-17T04:07:22.727Z,93.27
2022-08-17T04:09:49.703Z,98.97
2022-08-17T04:12:18.497Z,98.73
2022-08-17T04:14:52.243Z,92.90
2022-08-17T04:17:21.316Z,94.10
2022-08-17T04:19:47.753Z,100.23
2022-08-17T04:22:30.582Z,97.00
2022-08-17T04:24:58.133Z,98.83
2022-08-17T04:27:25.379Z,109.33
2022-08-17T04:29:54.615Z,95.97
2022-08-17T04:32:59.376Z,102.77
2022-08-17T04:35:09.682Z,97.80
2022-08-17T04:37:36.173Z,101.20
2022-08-17T04:40:21.367Z,105.50
2022-08-17T04:43:07.548Z,99.67
2022-08-17T04:45:34.921Z,100.33
2022-08-17T04:48:01.562Z,96.57
2022-08-17T04:50:28.203Z,94.90
2022-08-17T04:52:54.853Z,95.00
2022-08-17T04:55:21.787Z,90.00
2022-08-17T04:57:48.278Z,89.07
2022-08-17T05:00:15.103Z,92.80
2022-08-17T05:02:49.788Z,88.40
2022-08-17T05:05:20.825Z,91.43
2022-08-17T05:07:47.553Z,86.27
2022-08-17T05:10:16.752Z,86.47
2022-08-17T05:12:43.561Z,82.90
2022-08-17T05:15:16.127Z,85.97
2022-08-17T05:17:43.715Z,82.67
2022-08-17T05:20:10.565Z,86.53
2022-08-17T05:22:37.227Z,85.43
2022-08-17T05:25:03.798Z,76.93
2022-08-17T05:27:35.079Z,81.13
2022-08-17T05:30:02.234Z,76.60
2022-08-17T05:32:39.006Z,85.10
2022-08-17T05:35:07.096Z,84.30
2022-08-17T05:37:33.587Z,82.97
2022-08-17T05:40:00.141Z,91.90
2022-08-17T05:42:26.762Z,80.80
2022-08-17T05:44:53.242Z,86.77
2022-08-17T05:47:20.835Z,82.23
2022-08-17T05:49:49.028Z,82.10
2022-08-17T05:52:46.324Z,78.57
2022-08-17T05:55:35.642Z,81.67
2022-08-17T05:58:27.202Z,78.97
2022-08-17T06:01:04.243Z,77.80
2022-08-17T06:03:40.588Z,70.87
2022-08-17T06:06:31.405Z,75.47
2022-08-17T06:09:13.258Z,71.50
2022-08-17T06:12:21.963Z,75.10
2022-08-17T06:15:07.428Z,66.50
2022-08-17T06:17:34.367Z,66.33
2022-08-17T06:20:06.712Z,66.73
2022-08-17T06:22:36.859Z,68.37
2022-08-17T06:25:09.994Z,66.03
2022-08-17T06:27:40.689Z,67.20
2022-08-17T06:30:27.350Z,68.17
2022-08-17T06:32:57.473Z,63.57
2022-08-17T06:35:47.620Z,65.30
2022-08-17T06:38:38.188Z,61.90
2022-08-17T06:41:12.256Z,61.53
2022-08-17T06:44:06.347Z,57.47
2022-08-17T06:46:48.472Z,57.60
2022-08-17T06:49:22.635Z,64.87
2022-08-17T06:51:58.076Z,55.47
2022-08-17T06:54:39.170Z,61.73
2022-08-17T06:57:28.260Z,59.93
2022-08-17T06:59:57.853Z,58.47
2022-08-17T07:02:51.011Z,54.77
2022-08-17T07:05:21.709Z,54.07
2022-08-17T07:08:03.098Z,51.57
2022-08-17T07:10:37.268Z,52.13
2022-08-17T07:13:29.363Z,50.97
2022-08-17T07:16:15.914Z,51.07
2022-08-17T07:18:43.750Z,49.93
2022-08-17T07:21:42.423Z,46.67
2022-08-17T07:24:30.193Z,54.70
2022-08-17T07:27:04.655Z,45.83
2022-08-17T07:29:34.284Z,42.03
2022-08-17T07:32:00.703Z,46.00
2022-08-17T07:34:27.237Z,44.03
2022-08-17T07:37:05.361Z,41.07
2022-08-17T07:39:31.843Z,41.07
2022-08-17T07:42:03.519Z,42.30
2022-08-17T07:44:30.033Z,36.30
2022-08-17T07:47:15.706Z,37.93
2022-08-17T07:49:47.403Z,37.37
2022-08-17T07:52:50.692Z,37.53
2022-08-17T07:55:32.715Z,41.67
2022-08-17T07:57:59.519Z,36.70
2022-08-17T08:00:32.079Z,37.20
2022-08-17T08:03:17.680Z,31.10
2022-08-17T08:05:51.539Z,34.40
2022-08-17T08:08:26.161Z,33.50
2022-08-17T08:11:02.295Z,35.97
2022-08-17T08:13:30.152Z,33.42
2022-08-17T08:16:24.428Z,27.60
2022-08-17T08:18:57.963Z,25.70
2022-08-17T08:21:30.690Z,29.75
2022-08-17T08:24:15.930Z,29.38
2022-08-17T08:27:07.137Z,28.42
2022-08-17T08:30:05.187Z,29.58
2022-08-17T08:32:48.596Z,27.30
2022-08-17T08:35:20.292Z,25.00
2022-08-17T08:38:00.013Z,21.23
2022-08-17T08:40:43.248Z,24.15
2022-08-17T08:43:52.212Z,23.90
2022-08-17T08:46:47.145Z,22.90
2022-08-17T08:49:45.265Z,21.15
2022-08-17T08:52:27.818Z,20.58
2022-08-17T08:55:03.266Z,27.70
2022-08-17T08:57:37.148Z,21.63
2022-08-17T09:00:18.123Z,19.60
2022-08-17T09:03:03.319Z,20.27
2022-08-17T09:05:56.185Z,18.33
2022-08-17T09:08:55.859Z,19.55
2022-08-17T09:11:25.241Z,14.43
2022-08-17T09:14:00.734Z,19.70
2022-08-17T09:16:33.113Z,18.48
2022-08-17T09:19:19.408Z,17.33
2022-08-17T09:21:54.530Z,16.55
2022-08-17T09:24:43.191Z,13.93
2022-08-17T09:27:23.929Z,12.27
2022-08-17T09:30:07.840Z,10.25
2022-08-17T09:32:38.692Z,11.98
2022-08-17T09:35:33.785Z,12.13
2022-08-17T09:38:29.128Z,16.67
2022-08-17T09:41:26.104Z,13.43
2022-08-17T09:44:30.051Z,11.77
2022-08-17T09:47:10.486Z,11.32
2022-08-17T09:49:45.624Z,11.18
2022-08-17T09:52:17.922Z,7.20
2022-08-17T09:54:45.262Z,10.10
2022-08-17T09:57:42.767Z,8.55
2022-08-17T10:00:17.824Z,10.05
2022-08-17T10:03:08.376Z,8.52
2022-08-17T10:05:56.596Z,8.00
2022-08-17T10:08:36.120Z,7.10
2022-08-17T10:11:16.033Z,7.05
2022-08-17T10:14:01.914Z,8.00
2022-08-17T10:17:02.760Z,12.25
2022-08-17T10:19:36.563Z,6.40
2022-08-17T10:22:34.964Z,8.48
2022-08-17T10:25:27.872Z,8.02
2022-08-17T10:28:14.262Z,5.78
2022-08-17T10:31:01.423Z,9.25
2022-08-17T10:33:49.351Z,7.32
2022-08-17T10:36:22.627Z,7.72
2022-08-17T10:39:52.671Z,9.00
2022-08-17T10:42:33.031Z,7.90
2022-08-17T10:45:07.339Z,6.13
2022-08-17T10:48:04.665Z,7.25
2022-08-17T10:50:59.839Z,9.25
2022-08-17T10:53:32.264Z,7.13
2022-08-17T10:56:13.904Z,7.63
2022-08-17T10:58:49.393Z,6.18
2022-08-17T11:01:17.022Z,7.22
2022-08-17T11:03:52.376Z,5.07
2022-08-17T11:06:39.034Z,8.57
2022-08-17T11:09:31.575Z,7.45
2022-08-17T11:12:07.259Z,6.07
2022-08-17T11:14:52.498Z,5.32
2022-08-17T11:17:43.240Z,9.63
2022-08-17T11:20:54.240Z,7.90
2022-08-17T11:23:39.898Z,6.68
2022-08-17T11:26:27.274Z,6.40
2022-08-17T11:28:59.515Z,7.25
2022-08-17T11:31:39.254Z,9.75
2022-08-17T11:34:23.331Z,9.10
2022-08-17T11:36:49.635Z,7.35
2022-08-17T11:39:43.157Z,5.43
2022-08-17T11:42:27.885Z,6.63
2022-08-17T11:45:32.073Z,6.25
2022-08-17T11:48:36.047Z,6.32
2022-08-17T11:51:35.656Z,6.85
2022-08-17T11:54:31.706Z,5.85
2022-08-17T11:56:53.320Z,7.15
2022-08-17T11:59:43.799Z,8.05
2022-08-17T12:02:31.773Z,8.13
2022-08-17T12:05:26.044Z,7.80
2022-08-17T12:08:01.379Z,6.40
2022-08-17T12:10:33.013Z,7.07
2022-08-17T12:13:05.931Z,4.05
2022-08-17T12:15:36.539Z,9.63
2022-08-17T12:18:03.513Z,7.20
2022-08-17T12:20:33.728Z,6.35
2022-08-17T12:23:21.779Z,8.05
2022-08-17T12:25:59.381Z,8.68
2022-08-17T12:28:29.035Z,8.65
2022-08-17T12:31:01.100Z,9.02
2022-08-17T12:33:28.907Z,9.48
2022-08-17T12:36:03.606Z,6.28
2022-08-17T12:38:34.381Z,7.28
2022-08-17T12:41:25.110Z,5.43
2022-08-17T12:44:03.658Z,6.78
2022-08-17T12:46:45.032Z,8.63
2022-08-17T12:49:22.890Z,8.05
2022-08-17T12:51:50.847Z,4.85
2022-08-17T12:54:45.133Z,7.72
2022-08-17T12:57:18.900Z,7.13
2022-08-17T12:59:50.522Z,7.47
2022-08-17T13:02:22.700Z,5.03
2022-08-17T13:04:49.351Z,4.75
2022-08-17T13:07:36.086Z,9.55
2022-08-17T13:10:03.454Z,5.30
2022-08-17T13:12:33.526Z,9.05
2022-08-17T13:15:00.560Z,6.25
2022-08-17T13:17:30.456Z,7.93
2022-08-17T13:19:57.370Z,5.15
2022-08-17T13:22:25.454Z,4.60
2022-08-17T13:24:55.181Z,8.98
2022-08-17T13:27:24.482Z,6.72
2022-08-17T13:29:53.796Z,5.70
2022-08-17T13:32:35.839Z,6.45
2022-08-17T13:35:50.111Z,5.88
2022-08-17T13:38:40.409Z,4.47
2022-08-17T13:41:07.502Z,10.27
2022-08-17T13:43:46.008Z,9.23
2022-08-17T13:46:18.476Z,6.10
2022-08-17T13:48:46.283Z,6.50
2022-08-17T13:51:15.935Z,6.40
2022-08-17T13:53:42.351Z,7.07
2022-08-17T13:56:36.940Z,4.13
2022-08-17T13:59:03.602Z,6.28
2022-08-17T14:01:50.937Z,6.20
2022-08-17T14:04:31.599Z,5.05
2022-08-17T14:07:02.720Z,4.28
2022-08-17T14:09:37.415Z,6.15
2022-08-17T14:12:08.539Z,6.32
2022-08-17T14:14:35.278Z,7.28
2022-08-17T14:17:01.838Z,5.00
2022-08-17T14:19:28.293Z,5.60
2022-08-17T14:21:58.869Z,7.07
2022-08-17T14:24:31.187Z,7.72
2022-08-17T14:26:59.083Z,6.93
2022-08-17T14:29:27.890Z,5.90
2022-08-17T14:31:55.219Z,6.75
2022-08-17T14:34:23.021Z,6.10
2022-08-17T14:36:49.719Z,7.95
2022-08-17T14:39:16.518Z,5.50
2022-08-17T14:41:43.465Z,7.13
2022-08-17T14:44:12.533Z,5.85
2022-08-17T14:46:43.378Z,8.68
2022-08-17T14:49:11.233Z,5.93
2022-08-17T14:51:43.748Z,6.03
2022-08-17T14:54:11.763Z,8.43
2022-08-17T14:57:15.562Z,5.65
2022-08-17T14:59:44.680Z,10.10
2022-08-17T15:02:11.246Z,5.68
2022-08-17T15:04:41.865Z,6.18
2022-08-17T15:07:11.480Z,9.77
2022-08-17T15:09:37.922Z,6.43
2022-08-17T15:12:06.470Z,7.03
2022-08-17T15:14:34.914Z,10.27
2022-08-17T15:17:03.432Z,3.67
2022-08-17T15:19:29.893Z,7.07
2022-08-17T15:21:56.318Z,4.88
2022-08-17T15:24:22.809Z,7.45
2022-08-17T15:26:49.260Z,5.22
2022-08-17T15:29:15.852Z,6.38
2022-08-17T15:31:42.302Z,8.27
2022-08-17T15:34:08.776Z,5.20
2022-08-17T15:36:35.830Z,7.82
2022-08-17T15:39:03.106Z,7.10
2022-08-17T15:41:29.847Z,4.13
2022-08-17T15:43:56.460Z,7.53
2022-08-17T15:46:25.623Z,5.63
2022-08-17T15:48:56.567Z,8.95
2022-08-17T15:51:28.996Z,13.73
2022-08-17T15:54:22.123Z,8.00
2022-08-17T15:56:49.507Z,8.60
2022-08-17T15:59:15.986Z,6.20
2022-08-17T16:02:29.867Z,9.60
2022-08-17T16:04:30.829Z,11.05
2022-08-17T16:06:59.299Z,5.03
2022-08-17T16:09:25.784Z,10.63
2022-08-17T16:11:55.060Z,4.80
2022-08-17T16:14:22.382Z,5.85
2022-08-17T16:16:50.516Z,8.77
2022-08-17T16:19:17.102Z,13.38
2022-08-17T16:21:43.564Z,8.25
2022-08-17T16:24:13.237Z,7.07
2022-08-17T16:26:40.387Z,7.38
2022-08-17T16:29:07.204Z,12.82
2022-08-17T16:31:34.318Z,9.57
2022-08-17T16:34:17.266Z,6.85
2022-08-17T16:36:55.198Z,14.13
2022-08-17T16:39:27.355Z,15.65
2022-08-17T16:41:54.448Z,12.82
2022-08-17T16:44:21.647Z,13.60
2022-08-17T16:46:48.522Z,8.85
2022-08-17T16:49:29.671Z,10.45
2022-08-17T16:52:03.273Z,10.93
2022-08-17T16:54:29.774Z,7.28
2022-08-17T16:56:56.240Z,9.20
2022-08-17T16:59:38.826Z,6.55
2022-08-17T17:02:11.053Z,8.57
2022-08-17T17:05:08.002Z,5.93
2022-08-17T17:07:40.535Z,9.65
2022-08-17T17:10:13.546Z,7.60
2022-08-17T17:13:03.015Z,9.57
2022-08-17T17:15:35.493Z,8.57
2022-08-17T17:18:06.168Z,12.50
2022-08-17T17:20:47.972Z,7.28
2022-08-17T17:23:28.145Z,4.35
2022-08-17T17:26:32.185Z,7.05
2022-08-17T17:29:11.033Z,8.18
2022-08-17T17:31:51.192Z,18.13
2022-08-17T17:34:18.412Z,6.55
2022-08-17T17:36:54.166Z,5.18
2022-08-17T17:39:37.008Z,4.75
2022-08-17T17:42:07.562Z,4.10
2022-08-17T17:44:38.269Z,4.63
2022-08-17T17:47:05.184Z,6.85
2022-08-17T17:49:43.882Z,3.95
2022-08-17T17:52:36.119Z,6.57
2022-08-17T17:55:23.637Z,9.10
2022-08-17T17:58:04.825Z,3.80
2022-08-17T18:00:39.584Z,6.80
2022-08-17T18:03:27.887Z,5.43
2022-08-17T18:05:57.583Z,5.10
2022-08-17T18:08:34.852Z,4.28
2022-08-17T18:11:34.790Z,10.27
2022-08-17T18:14:31.545Z,6.90
2022-08-17T18:17:00.210Z,6.72
2022-08-17T18:19:29.202Z,4.80
2022-08-17T18:22:05.069Z,4.15
2022-08-17T18:24:39.226Z,6.85
2022-08-17T18:27:23.317Z,4.80
2022-08-17T18:29:55.003Z,6.05
2022-08-17T18:32:28.295Z,5.93
2022-08-17T18:35:09.606Z,4.85
2022-08-17T18:37:39.094Z,7.88
2022-08-17T18:40:18.232Z,5.53
2022-08-17T18:42:56.083Z,9.32
2022-08-17T18:45:45.112Z,6.70
2022-08-17T18:48:33.095Z,5.70
2022-08-17T18:51:07.703Z,9.95
2022-08-17T18:53:40.607Z,5.00
2022-08-17T18:56:22.162Z,5.73
2022-08-17T18:58:57.048Z,7.40
2022-08-17T19:01:47.137Z,7.00
2022-08-17T19:04:28.376Z,6.00
2022-08-17T19:07:11.258Z,6.27
2022-08-17T19:09:45.929Z,9.80
2022-08-17T19:12:36.467Z,8.30
2022-08-17T19:15:03.275Z,7.47
2022-08-17T19:17:39.995Z,7.83
2022-08-17T19:20:17.132Z,11.33
2022-08-17T19:22:54.686Z,8.27
2022-08-17T19:25:27.018Z,11.80
2022-08-17T19:28:03.226Z,7.83
2022-08-17T19:30:30.199Z,6.87
2022-08-17T19:32:58.378Z,10.17
2022-08-17T19:35:27.749Z,10.53
2022-08-17T19:38:12.882Z,7.37
2022-08-17T19:40:53.544Z,6.47
2022-08-17T19:43:34.668Z,7.10
2022-08-17T19:46:10.213Z,8.73
2022-08-17T19:48:39.524Z,6.83
2022-08-17T19:51:30.755Z,9.33
2022-08-17T19:54:14.057Z,11.00
2022-08-17T19:56:55.800Z,10.87
2022-08-17T19:59:25.255Z,7.37
2022-08-17T20:01:54.586Z,7.63
2022-08-17T20:04:31.779Z,8.30
2022-08-17T20:07:06.718Z,9.33
2022-08-17T20:09:44.495Z,9.37
2022-08-17T20:12:14.500Z,9.47
2022-08-17T20:14:55.118Z,8.00
2022-08-17T20:17:25.072Z,8.93
2022-08-17T20:20:21.441Z,8.70
2022-08-17T20:22:54.832Z,6.27
2022-08-17T20:25:36.458Z,7.83
2022-08-17T20:28:17.492Z,8.60
2022-08-17T20:30:44.309Z,6.97
2022-08-17T20:33:32.323Z,7.87
2022-08-17T20:36:10.864Z,7.57
2022-08-17T20:38:41.070Z,9.20
2022-08-17T20:41:17.843Z,9.77
2022-08-17T20:43:51.223Z,9.30
2022-08-17T20:46:34.127Z,13.10
2022-08-17T20:49:23.898Z,15.07
2022-08-17T20:52:09.027Z,16.97
2022-08-17T20:54:57.308Z,16.67
2022-08-17T20:57:32.985Z,13.07
2022-08-17T21:00:15.268Z,11.83
2022-08-17T21:02:49.202Z,11.23
2022-08-17T21:05:34.478Z,11.20
2022-08-17T21:08:28.439Z,10.00
2022-08-17T21:10:55.620Z,12.73
2022-08-17T21:13:34.772Z,14.77
2022-08-17T21:16:08.013Z,13.00
2022-08-17T21:18:40.348Z,13.10
2022-08-17T21:21:31.835Z,10.07
2022-08-17T21:24:20.036Z,11.47
2022-08-17T21:26:58.623Z,9.60
2022-08-17T21:29:30.943Z,10.07
2022-08-17T21:31:59.081Z,8.60
2022-08-17T21:34:36.463Z,12.50
2022-08-17T21:37:28.536Z,12.67
2022-08-17T21:40:21.421Z,11.70
2022-08-17T21:42:51.456Z,12.80
2022-08-17T21:45:25.734Z,13.30
2022-08-17T21:48:21.144Z,12.77
2022-08-17T21:51:11.327Z,14.20
2022-08-17T21:53:50.541Z,12.33
2022-08-17T21:56:25.014Z,13.23
2022-08-17T21:59:01.170Z,12.60
2022-08-17T22:01:34.606Z,12.33
2022-08-17T22:04:11.347Z,15.27
2022-08-17T22:06:55.820Z,11.77
2022-08-17T22:09:30.062Z,12.53
2022-08-17T22:12:05.197Z,14.97
2022-08-17T22:14:53.243Z,14.70
2022-08-17T22:17:23.463Z,14.20
2022-08-17T22:19:56.565Z,13.60
2022-08-17T22:22:33.727Z,17.87
2022-08-17T22:25:08.495Z,17.97
2022-08-17T22:27:46.651Z,16.10
2022-08-17T22:30:32.938Z,15.23
2022-08-17T22:33:00.814Z,19.13
2022-08-17T22:35:32.587Z,16.33
2022-08-17T22:38:20.608Z,17.73
2022-08-17T22:40:51.991Z,17.57
2022-08-17T22:43:25.873Z,18.13
2022-08-17T22:45:55.545Z,15.63
2022-08-17T22:48:27.565Z,14.80
2022-08-17T22:51:12.507Z,15.13
2022-08-17T22:54:14.976Z,15.97
2022-08-17T22:57:14.324Z,17.13
2022-08-17T22:59:49.151Z,15.50
2022-08-17T23:02:20.296Z,15.03
2022-08-17T23:04:51.283Z,15.47
2022-08-17T23:07:19.011Z,13.77
2022-08-17T23:09:45.877Z,15.90
2022-08-17T23:12:16.352Z,12.90
2022-08-17T23:14:45.767Z,12.57
2022-08-17T23:17:12.797Z,12.03
2022-08-17T23:19:39.713Z,13.53
2022-08-17T23:22:07.531Z,13.90
2022-08-17T23:24:43.718Z,12.33
2022-08-17T23:27:10.701Z,14.80
2022-08-17T23:29:39.341Z,11.63
2022-08-17T23:32:06.445Z,12.57
2022-08-17T23:34:32.966Z,13.27
2022-08-17T23:37:02.124Z,14.53
2022-08-17T23:39:28.662Z,13.70
2022-08-17T23:41:59.331Z,13.03
2022-08-17T23:44:26.644Z,15.60
2022-08-17T23:46:54.091Z,12.13
2022-08-17T23:49:20.881Z,12.73
2022-08-17T23:51:48.335Z,12.67
2022-08-17T23:54:26.647Z,12.93
2022-08-17T23:56:53.139Z,14.93
2022-08-17T23:59:21.478Z,13.10
